createdAt,value
2023-07-14T00:05:16.129Z,65.33
2023-07-14T00:08:03.520Z,65.82
2023-07-14T00:10:49.092Z,65.07
2023-07-14T00:13:34.518Z,66.07
2023-07-14T00:16:29.415Z,66.74
2023-07-14T00:19:17.679Z,68.16
2023-07-14T00:22:03.675Z,66.96
2023-07-14T00:24:48.986Z,65.98
2023-07-14T00:27:34.466Z,66.85
2023-07-14T00:30:22.339Z,67.27
2023-07-14T00:33:20.387Z,67.48
2023-07-14T00:36:06.055Z,67.82
2023-07-14T00:38:51.680Z,68.44
2023-07-14T00:41:36.834Z,68.49
2023-07-14T00:44:22.175Z,68.47
2023-07-14T00:47:26.899Z,68.87
2023-07-14T00:50:30.118Z,67.78
2023-07-14T00:53:20.538Z,67.93
2023-07-14T00:56:12.070Z,68.41
2023-07-14T00:58:59.361Z,67.89
2023-07-14T01:02:23.221Z,68.54
2023-07-14T01:05:09.042Z,68.12
2023-07-14T01:07:56.215Z,69.61
2023-07-14T01:10:42.578Z,69.14
2023-07-14T01:13:30.652Z,68.10
2023-07-14T01:16:16.790Z,68.33
2023-07-14T01:19:08.358Z,67.75
2023-07-14T01:22:22.185Z,67.08
2023-07-14T01:25:26.095Z,68.01
2023-07-14T01:28:14.792Z,68.15
2023-07-14T01:31:02.243Z,68.49
2023-07-14T01:33:47.727Z,68.64
2023-07-14T01:36:33.212Z,68.45
2023-07-14T01:39:18.598Z,67.92
2023-07-14T01:42:04.327Z,67.59
2023-07-14T01:44:50.333Z,66.66
2023-07-14T01:47:36.253Z,67.12
2023-07-14T01:50:26.372Z,67.51
2023-07-14T01:53:22.144Z,67.94
2023-07-14T01:56:11.154Z,68.36
2023-07-14T01:59:20.868Z,67.98
2023-07-14T02:02:12.732Z,67.55
2023-07-14T02:04:58.641Z,66.64
2023-07-14T02:07:44.156Z,66.52
2023-07-14T02:10:29.821Z,66.77
2023-07-14T02:13:15.157Z,66.61
2023-07-14T02:16:01.041Z,66.59
2023-07-14T02:18:48.456Z,66.62
2023-07-14T02:21:33.923Z,66.31
2023-07-14T02:24:23.491Z,65.64
2023-07-14T02:27:12.621Z,66.32
2023-07-14T02:30:02.411Z,66.66
2023-07-14T02:32:52.948Z,66.63
2023-07-14T02:36:08.761Z,67.38
2023-07-14T02:38:54.318Z,66.59
2023-07-14T02:41:43.482Z,66.59
2023-07-14T02:44:34.586Z,67.10
2023-07-14T02:47:22.656Z,66.87
2023-07-14T02:50:08.394Z,66.62
2023-07-14T02:52:54.040Z,67.22
2023-07-14T02:55:39.385Z,66.75
2023-07-14T02:58:24.823Z,66.98
2023-07-14T03:01:10.317Z,66.44
2023-07-14T03:03:57.887Z,67.03
2023-07-14T03:06:45.890Z,67.83
2023-07-14T03:09:32.856Z,67.79
2023-07-14T03:12:19.772Z,67.51
2023-07-14T03:15:06.131Z,67.26
2023-07-14T03:17:52.044Z,66.66
2023-07-14T03:20:37.446Z,66.36
2023-07-14T03:23:22.899Z,66.26
2023-07-14T03:26:10.053Z,66.49
2023-07-14T03:28:56.054Z,66.81
2023-07-14T03:31:41.445Z,66.83
2023-07-14T03:34:26.986Z,67.07
2023-07-14T03:37:12.487Z,67.37
2023-07-14T03:39:57.783Z,67.53
2023-07-14T03:42:42.998Z,67.12
2023-07-14T03:45:28.689Z,67.51
2023-07-14T03:48:13.954Z,67.97
2023-07-14T03:51:03.388Z,69.06
2023-07-14T03:53:48.669Z,69.77
2023-07-14T03:56:34.128Z,69.36
2023-07-14T03:59:19.385Z,69.38
2023-07-14T04:02:05.131Z,69.61
2023-07-14T04:04:50.812Z,68.61
2023-07-14T04:07:38.027Z,68.65
2023-07-14T04:10:23.427Z,68.45
2023-07-14T04:13:09.077Z,69.27
2023-07-14T04:15:54.495Z,68.77
2023-07-14T04:18:39.739Z,68.36
2023-07-14T04:21:25.712Z,68.19
2023-07-14T04:24:11.404Z,67.60
2023-07-14T04:26:56.529Z,67.87
2023-07-14T04:29:41.912Z,66.22
2023-07-14T04:32:27.167Z,65.91
2023-07-14T04:35:12.497Z,64.98
2023-07-14T04:37:57.720Z,68.09
2023-07-14T04:40:43.127Z,67.76
2023-07-14T04:43:28.359Z,68.69
2023-07-14T04:46:14.200Z,69.08
2023-07-14T04:48:59.567Z,69.21
2023-07-14T04:51:45.595Z,70.13
2023-07-14T04:54:31.051Z,69.95
2023-07-14T04:57:16.605Z,70.54
2023-07-14T05:00:02.190Z,70.88
2023-07-14T05:02:47.663Z,70.97
2023-07-14T05:05:33.562Z,71.10
2023-07-14T05:08:18.984Z,66.04
2023-07-14T05:11:04.188Z,64.37
2023-07-14T05:13:52.551Z,64.51
2023-07-14T05:16:38.115Z,64.05
2023-07-14T05:19:23.723Z,62.77
2023-07-14T05:22:08.910Z,62.54
2023-07-14T05:24:54.098Z,63.29
2023-07-14T05:27:39.797Z,62.47
2023-07-14T05:30:25.017Z,63.47
2023-07-14T05:33:10.558Z,64.46
2023-07-14T05:35:55.682Z,64.19
2023-07-14T05:38:40.851Z,63.37
2023-07-14T05:41:26.030Z,62.95
2023-07-14T05:44:11.532Z,64.01
2023-07-14T05:46:56.903Z,64.91
2023-07-14T05:49:42.170Z,65.91
2023-07-14T05:52:27.800Z,64.72
2023-07-14T05:55:13.565Z,61.72
2023-07-14T05:57:58.911Z,63.15
2023-07-14T06:00:44.715Z,61.57
2023-07-14T06:03:30.313Z,61.05
2023-07-14T06:06:15.730Z,61.00
2023-07-14T06:09:02.265Z,62.68
2023-07-14T06:11:47.603Z,60.10
2023-07-14T06:14:37.677Z,59.24
2023-07-14T06:17:23.264Z,58.78
2023-07-14T06:20:09.018Z,58.53
2023-07-14T06:22:54.248Z,57.34
2023-07-14T06:25:39.747Z,55.40
2023-07-14T06:28:25.772Z,56.83
2023-07-14T06:31:14.128Z,56.33
2023-07-14T06:33:59.476Z,55.87
2023-07-14T06:36:44.721Z,55.14
2023-07-14T06:39:30.908Z,56.16
2023-07-14T06:42:16.284Z,53.88
2023-07-14T06:45:02.219Z,52.11
2023-07-14T06:47:47.680Z,54.20
2023-07-14T06:50:33.001Z,52.10
2023-07-14T06:53:19.342Z,52.40
2023-07-14T06:56:05.071Z,50.66
2023-07-14T06:58:50.834Z,52.31
2023-07-14T07:01:36.023Z,49.85
2023-07-14T07:04:21.349Z,47.70
2023-07-14T07:07:06.913Z,49.61
2023-07-14T07:09:52.389Z,50.90
2023-07-14T07:12:37.811Z,49.92
2023-07-14T07:15:23.539Z,50.57
2023-07-14T07:18:09.796Z,48.67
2023-07-14T07:20:56.354Z,48.85
2023-07-14T07:23:41.650Z,46.82
2023-07-14T07:26:26.863Z,44.60
2023-07-14T07:29:11.887Z,45.45
2023-07-14T07:31:57.700Z,46.63
2023-07-14T07:34:43.396Z,46.40
2023-07-14T07:37:30.065Z,44.48
2023-07-14T07:40:15.471Z,44.43
2023-07-14T07:43:01.955Z,44.22
2023-07-14T07:45:50.269Z,46.00
2023-07-14T07:48:36.619Z,45.62
2023-07-14T07:51:21.845Z,45.79
2023-07-14T07:54:06.917Z,44.47
2023-07-14T07:56:52.454Z,42.34
2023-07-14T07:59:38.379Z,42.86
2023-07-14T08:02:25.176Z,43.26
2023-07-14T08:05:14.882Z,40.31
2023-07-14T08:08:00.315Z,39.93
2023-07-14T08:10:46.399Z,41.00
2023-07-14T08:13:31.657Z,42.58
2023-07-14T08:16:17.275Z,41.48
2023-07-14T08:19:03.309Z,43.00
2023-07-14T08:21:48.532Z,41.62
2023-07-14T08:24:33.926Z,43.51
2023-07-14T08:27:19.563Z,40.76
2023-07-14T08:30:05.747Z,39.00
2023-07-14T08:32:51.367Z,37.91
2023-07-14T08:35:36.705Z,37.83
2023-07-14T08:38:23.174Z,38.40
2023-07-14T08:41:36.722Z,40.50
2023-07-14T08:44:22.288Z,39.38
2023-07-14T08:47:20.779Z,40.84
2023-07-14T08:50:14.935Z,41.72
2023-07-14T08:53:03.157Z,36.73
2023-07-14T08:55:48.708Z,36.48
2023-07-14T08:58:41.828Z,35.70
2023-07-14T09:01:47.476Z,36.84
2023-07-14T09:04:39.301Z,36.32
2023-07-14T09:07:24.634Z,36.20
2023-07-14T09:10:13.509Z,36.86
2023-07-14T09:13:03.940Z,35.71
2023-07-14T09:15:50.562Z,35.94
2023-07-14T09:18:50.093Z,34.68
2023-07-14T09:21:41.338Z,33.19
2023-07-14T09:24:39.146Z,34.59
2023-07-14T09:27:28.280Z,35.40
2023-07-14T09:30:21.384Z,35.59
2023-07-14T09:33:15.168Z,35.82
2023-07-14T09:36:00.900Z,36.74
2023-07-14T09:38:54.515Z,32.89
2023-07-14T09:41:39.938Z,34.09
2023-07-14T09:44:25.591Z,32.30
2023-07-14T09:47:11.464Z,32.66
2023-07-14T09:49:56.989Z,32.25
2023-07-14T09:52:50.594Z,32.68
2023-07-14T09:55:58.346Z,33.79
2023-07-14T09:58:54.106Z,32.74
2023-07-14T10:01:51.799Z,33.72
2023-07-14T10:04:37.055Z,33.46
2023-07-14T10:07:37.722Z,34.25
2023-07-14T10:10:23.769Z,34.07
2023-07-14T10:13:21.317Z,33.71
2023-07-14T10:16:15.307Z,33.38
2023-07-14T10:19:11.714Z,35.46
2023-07-14T10:22:18.402Z,35.13
2023-07-14T10:25:04.014Z,35.24
2023-07-14T10:27:57.281Z,35.54
2023-07-14T10:31:18.328Z,35.89
2023-07-14T10:34:15.695Z,35.93
2023-07-14T10:37:09.178Z,34.49
2023-07-14T10:40:08.085Z,34.17
2023-07-14T10:43:01.508Z,35.23
2023-07-14T10:45:50.486Z,33.89
2023-07-14T10:48:42.820Z,33.07
2023-07-14T10:52:06.252Z,32.82
2023-07-14T10:54:57.104Z,32.35
2023-07-14T10:57:47.259Z,33.00
2023-07-14T11:00:41.692Z,34.37
2023-07-14T11:03:40.325Z,34.11
2023-07-14T11:06:31.419Z,33.33
2023-07-14T11:09:17.185Z,33.00
2023-07-14T11:12:17.869Z,33.39
2023-07-14T11:15:21.924Z,34.27
2023-07-14T11:18:30.081Z,33.21
2023-07-14T11:21:28.911Z,33.45
2023-07-14T11:24:25.426Z,31.78
2023-07-14T11:27:30.338Z,32.25
2023-07-14T11:30:22.824Z,33.69
2023-07-14T11:33:17.052Z,33.01
2023-07-14T11:36:32.735Z,33.32
2023-07-14T11:39:45.919Z,33.96
2023-07-14T11:42:36.066Z,33.11
2023-07-14T11:45:25.368Z,32.40
2023-07-14T11:48:45.054Z,32.72
2023-07-14T11:52:09.926Z,31.00
2023-07-14T11:55:20.961Z,32.54
2023-07-14T11:58:12.139Z,31.76
2023-07-14T12:01:03.981Z,31.10
2023-07-14T12:03:52.613Z,31.56
2023-07-14T12:07:03.466Z,30.49
2023-07-14T12:10:13.019Z,31.31
2023-07-14T12:13:16.983Z,32.26
2023-07-14T12:16:02.344Z,31.27
2023-07-14T12:19:02.141Z,31.80
2023-07-14T12:22:08.485Z,31.77
2023-07-14T12:24:54.210Z,31.41
2023-07-14T12:27:45.039Z,31.61
2023-07-14T12:30:31.665Z,31.66
2023-07-14T12:33:17.711Z,31.52
2023-07-14T12:36:04.538Z,31.69
2023-07-14T12:38:51.447Z,32.77
2023-07-14T12:41:40.781Z,32.63
2023-07-14T12:44:33.943Z,31.77
2023-07-14T12:47:19.833Z,31.69
2023-07-14T12:50:05.539Z,31.65
2023-07-14T12:52:51.301Z,32.00
2023-07-14T12:55:36.970Z,32.44
2023-07-14T12:58:24.586Z,32.45
2023-07-14T13:01:10.091Z,32.46
2023-07-14T13:03:55.522Z,31.92
2023-07-14T13:06:43.514Z,30.46
2023-07-14T13:09:29.628Z,30.06
2023-07-14T13:12:15.756Z,30.75
2023-07-14T13:15:04.165Z,30.29
2023-07-14T13:20:40.273Z,32.36
2023-07-14T13:23:28.927Z,31.42
2023-07-14T13:26:19.050Z,32.61
2023-07-14T13:29:15.044Z,32.46
2023-07-14T13:32:05.703Z,32.92
2023-07-14T13:34:54.477Z,32.57
2023-07-14T13:37:41.517Z,29.51
2023-07-14T13:40:26.907Z,30.68
2023-07-14T13:43:19.735Z,30.56
2023-07-14T13:46:14.125Z,29.47
2023-07-14T13:49:05.980Z,29.59
2023-07-14T13:51:51.617Z,30.66
2023-07-14T13:54:41.709Z,31.61
2023-07-14T13:57:26.847Z,30.74
2023-07-14T14:00:23.707Z,29.73
2023-07-14T14:03:11.022Z,30.67
2023-07-14T14:05:56.145Z,29.13
2023-07-14T14:08:41.489Z,28.55
2023-07-14T14:11:26.915Z,29.61
2023-07-14T14:14:13.569Z,28.38
2023-07-14T14:16:59.917Z,30.42
2023-07-14T14:19:44.984Z,29.27
2023-07-14T14:22:30.628Z,29.91
2023-07-14T14:25:19.094Z,28.98
2023-07-14T14:28:05.280Z,30.03
2023-07-14T14:30:58.113Z,30.06
2023-07-14T14:33:47.077Z,30.15
2023-07-14T14:36:35.155Z,29.94
2023-07-14T14:39:23.213Z,29.77
2023-07-14T14:42:16.754Z,30.50
2023-07-14T14:45:02.153Z,30.25
2023-07-14T14:47:47.946Z,29.99
2023-07-14T14:50:33.190Z,30.80
2023-07-14T14:53:24.261Z,30.14
2023-07-14T14:56:18.338Z,30.28
2023-07-14T14:59:13.565Z,31.13
2023-07-14T15:01:58.729Z,31.02
2023-07-14T15:04:44.135Z,29.52
2023-07-14T15:07:29.703Z,29.31
2023-07-14T15:10:15.465Z,29.63
2023-07-14T15:13:00.868Z,29.22
2023-07-14T15:15:49.434Z,29.07
2023-07-14T15:18:34.500Z,29.20
2023-07-14T15:21:20.204Z,29.39
2023-07-14T15:24:06.094Z,28.49
2023-07-14T15:26:51.691Z,30.27
2023-07-14T15:29:36.666Z,30.01
2023-07-14T15:32:23.320Z,29.88
2023-07-14T15:35:19.686Z,29.92
2023-07-14T15:38:05.144Z,30.16
2023-07-14T15:40:51.386Z,29.98
2023-07-14T15:43:36.899Z,28.75
2023-07-14T15:46:23.972Z,29.36
2023-07-14T15:49:19.596Z,29.22
2023-07-14T15:52:05.901Z,30.54
2023-07-14T15:54:51.101Z,29.96
2023-07-14T15:57:36.349Z,30.12
2023-07-14T16:00:22.762Z,30.38
2023-07-14T16:03:09.422Z,30.02
2023-07-14T16:05:55.296Z,30.24
2023-07-14T16:08:41.473Z,30.66
2023-07-14T16:11:33.424Z,30.18
2023-07-14T16:14:18.988Z,31.38
2023-07-14T16:17:04.990Z,31.75
2023-07-14T16:19:50.187Z,31.57
2023-07-14T16:22:35.804Z,31.60
2023-07-14T16:25:21.952Z,31.12
2023-07-14T16:28:07.199Z,30.76
2023-07-14T16:30:52.703Z,30.69
2023-07-14T16:33:38.639Z,30.89
2023-07-14T16:36:32.623Z,30.57
2023-07-14T16:39:24.952Z,31.04
2023-07-14T16:42:16.507Z,31.02
2023-07-14T16:45:01.979Z,30.52
2023-07-14T16:47:47.458Z,30.96
2023-07-14T16:50:32.509Z,30.69
2023-07-14T16:53:19.972Z,31.24
2023-07-14T16:56:05.214Z,31.52
2023-07-14T16:58:50.521Z,31.24
2023-07-14T17:01:36.132Z,31.22
2023-07-14T17:04:24.282Z,31.46
2023-07-14T17:07:10.679Z,30.22
2023-07-14T17:09:56.213Z,30.40
2023-07-14T17:12:41.419Z,31.53
2023-07-14T17:15:26.804Z,31.96
2023-07-14T17:18:13.694Z,32.04
2023-07-14T17:21:00.730Z,33.52
2023-07-14T17:23:46.294Z,33.28
2023-07-14T17:26:31.696Z,31.50
2023-07-14T17:29:31.649Z,30.94
2023-07-14T17:32:16.898Z,30.49
2023-07-14T17:35:03.387Z,30.37
2023-07-14T17:37:51.049Z,30.40
2023-07-14T17:40:36.380Z,30.78
2023-07-14T17:43:22.030Z,31.62
2023-07-14T17:46:08.435Z,31.29
2023-07-14T17:48:55.521Z,30.89
2023-07-14T17:51:51.814Z,34.10
2023-07-14T17:54:37.132Z,31.93
2023-07-14T17:57:22.672Z,32.07
2023-07-14T18:00:14.575Z,31.81
2023-07-14T18:03:00.531Z,33.96
2023-07-14T18:05:46.156Z,34.65
2023-07-14T18:08:31.464Z,32.82
2023-07-14T18:11:24.401Z,34.88
2023-07-14T18:14:14.457Z,35.48
2023-07-14T18:16:59.900Z,35.30
2023-07-14T18:19:46.064Z,35.27
2023-07-14T18:22:31.899Z,35.71
2023-07-14T18:25:23.199Z,36.19
2023-07-14T18:28:18.143Z,36.75
2023-07-14T18:31:15.211Z,37.45
2023-07-14T18:34:00.652Z,37.76
2023-07-14T18:36:48.037Z,38.40
2023-07-14T18:39:33.347Z,38.73
2023-07-14T18:42:22.946Z,38.87
2023-07-14T18:45:20.022Z,39.53
2023-07-14T18:48:22.905Z,39.79
2023-07-14T18:51:16.652Z,40.00
2023-07-14T18:57:23.104Z,40.47
2023-07-14T19:00:14.221Z,40.57
2023-07-14T19:02:59.486Z,40.29
2023-07-14T19:05:45.499Z,40.45
2023-07-14T19:08:31.451Z,41.30
2023-07-14T19:11:19.512Z,41.60
2023-07-14T19:14:04.629Z,41.79
2023-07-14T19:16:50.189Z,42.12
2023-07-14T19:19:35.822Z,41.91
2023-07-14T19:22:21.954Z,42.93
2023-07-14T19:25:17.649Z,42.06
2023-07-14T19:28:15.203Z,44.05
2023-07-14T19:31:00.822Z,42.38
2023-07-14T19:33:46.107Z,42.93
2023-07-14T19:36:31.658Z,43.51
2023-07-14T19:39:17.680Z,43.59
2023-07-14T19:42:05.913Z,43.55
2023-07-14T19:44:50.969Z,43.66
2023-07-14T19:47:36.449Z,43.96
2023-07-14T19:50:22.155Z,44.24
2023-07-14T19:53:22.693Z,44.98
2023-07-14T19:56:10.405Z,45.28
2023-07-14T19:58:57.149Z,45.30
2023-07-14T20:01:42.158Z,45.68
2023-07-14T20:04:27.445Z,45.73
2023-07-14T20:07:12.771Z,45.33
2023-07-14T20:09:58.354Z,45.20
2023-07-14T20:12:44.197Z,45.28
2023-07-14T20:15:29.745Z,45.80
2023-07-14T20:18:26.616Z,46.08
2023-07-14T20:21:31.318Z,46.23
2023-07-14T20:24:22.081Z,46.33
2023-07-14T20:27:25.734Z,46.57
2023-07-14T20:30:20.423Z,46.05
2023-07-14T20:33:06.256Z,45.90
2023-07-14T20:35:52.877Z,45.54
2023-07-14T20:38:38.302Z,46.11
2023-07-14T20:41:33.823Z,45.77
2023-07-14T20:44:19.397Z,46.22
2023-07-14T20:47:13.811Z,46.14
2023-07-14T20:49:59.253Z,45.95
2023-07-14T20:52:46.884Z,46.29
2023-07-14T20:55:32.130Z,46.46
2023-07-14T20:58:19.964Z,46.60
2023-07-14T21:01:10.038Z,46.98
2023-07-14T21:03:55.140Z,46.52
2023-07-14T21:06:40.368Z,46.33
2023-07-14T21:09:25.755Z,46.63
2023-07-14T21:12:15.920Z,46.56
2023-07-14T21:15:01.292Z,47.40
2023-07-14T21:17:46.773Z,47.51
2023-07-14T21:20:35.064Z,47.77
2023-07-14T21:23:20.519Z,48.86
2023-07-14T21:26:07.143Z,49.75
2023-07-14T21:28:58.117Z,50.07
2023-07-14T21:31:43.743Z,49.52
2023-07-14T21:34:29.315Z,49.01
2023-07-14T21:37:14.515Z,49.46
2023-07-14T21:39:59.964Z,49.57
2023-07-14T21:42:46.177Z,50.16
2023-07-14T21:45:31.486Z,50.50
2023-07-14T21:48:21.913Z,50.52
2023-07-14T21:51:14.614Z,50.85
2023-07-14T21:54:00.003Z,50.76
2023-07-14T21:56:47.256Z,51.33
2023-07-14T21:59:36.201Z,51.22
2023-07-14T22:02:21.537Z,51.38
2023-07-14T22:05:13.233Z,51.36
2023-07-14T22:07:58.756Z,51.43
2023-07-14T22:10:46.893Z,51.60
2023-07-14T22:13:33.906Z,51.50
2023-07-14T22:16:20.664Z,51.34
2023-07-14T22:19:18.272Z,51.31
2023-07-14T22:22:03.962Z,50.75
2023-07-14T22:24:52.391Z,50.87
2023-07-14T22:27:39.520Z,50.62
2023-07-14T22:30:24.876Z,51.04
2023-07-14T22:33:15.957Z,51.30
2023-07-14T22:36:03.450Z,51.26
2023-07-14T22:38:49.103Z,51.62
2023-07-14T22:41:38.511Z,51.48
2023-07-14T22:44:24.023Z,51.67
2023-07-14T22:47:11.121Z,51.62
2023-07-14T22:49:56.171Z,51.61
2023-07-14T22:52:43.051Z,51.60
2023-07-14T22:55:28.350Z,51.51
2023-07-14T22:58:15.744Z,51.55
2023-07-14T23:01:01.186Z,51.55
2023-07-14T23:03:48.281Z,51.68
2023-07-14T23:06:33.852Z,51.55
2023-07-14T23:09:19.541Z,51.38
2023-07-14T23:12:05.152Z,51.87
2023-07-14T23:14:50.882Z,52.33
2023-07-14T23:17:36.278Z,52.45
2023-07-14T23:20:21.459Z,52.37
2023-07-14T23:23:11.957Z,52.46
2023-07-14T23:25:57.625Z,52.29
2023-07-14T23:28:43.216Z,52.26
2023-07-14T23:31:32.602Z,52.38
2023-07-14T23:34:17.807Z,52.58
2023-07-14T23:37:04.198Z,53.19
2023-07-14T23:39:49.680Z,53.47
2023-07-14T23:42:36.748Z,53.83
2023-07-14T23:45:24.438Z,53.54
2023-07-14T23:48:10.328Z,53.42
2023-07-14T23:50:56.031Z,53.18
2023-07-14T23:53:41.521Z,53.00
2023-07-14T23:56:28.158Z,54.34
2023-07-14T23:59:13.290Z,54.94
